Time;durP1;ratioP1;P1;durP2;ratioP2;P2;SDS_P1;SDS_P2;PMS_P1;PMS_P2;Temp;Humidity;BMP_temperature;BMP_pressure;BME280_temperature;BME280_humidity;BME280_pressure;Samples;Min_cycle;Max_cycle;Signal;HPM_P1;HPM_P2
2023/01/07 00:00:32;;;;;;;0.60;0.60;;;9.60;90.30;;;;;;5056797;28;20059;-77
2023/01/07 00:02:57;;;;;;;2.08;0.60;;;9.50;90.20;;;;;;5056910;28;20050;-77
2023/01/07 00:05:23;;;;;;;0.70;0.50;;;9.50;90.20;;;;;;5070204;28;20038;-77
2023/01/07 00:07:48;;;;;;;0.63;0.60;;;9.50;90.20;;;;;;5043837;28;20040;-76
2023/01/07 00:10:14;;;;;;;1.10;0.68;;;9.60;90.30;;;;;;5056871;28;20051;-76
2023/01/07 00:12:39;;;;;;;0.90;0.70;;;9.50;90.30;;;;;;5054039;28;20438;-77
2023/01/07 00:15:06;;;;;;;1.92;1.40;;;9.50;90.30;;;;;;5056561;28;20040;-76
2023/01/07 00:17:31;;;;;;;2.13;1.35;;;9.50;90.30;;;;;;5052465;28;20036;-77
2023/01/07 00:19:57;;;;;;;1.70;1.02;;;9.50;90.30;;;;;;5055718;28;20039;-78
2023/01/07 00:22:22;;;;;;;1.63;1.20;;;9.50;90.30;;;;;;5053941;28;20591;-76
2023/01/07 00:24:48;;;;;;;0.95;0.73;;;9.50;90.30;;;;;;5053847;28;20047;-75
2023/01/07 00:27:13;;;;;;;1.02;0.80;;;9.50;90.30;;;;;;5059132;28;20043;-77
2023/01/07 00:29:39;;;;;;;0.80;0.60;;;9.50;90.30;;;;;;5041138;28;20066;-77
2023/01/07 00:32:04;;;;;;;0.70;0.60;;;9.50;90.30;;;;;;5065922;28;20043;-78
2023/01/07 00:34:30;;;;;;;0.35;0.30;;;9.50;90.30;;;;;;5054507;28;20123;-76
2023/01/07 00:37:48;;;;;;;0.50;0.45;;;9.50;90.30;;;;;;5035865;28;20028;-75
2023/01/07 00:39:41;;;;;;;0.32;0.32;;;9.50;90.30;;;;;;5054821;28;20043;-76
2023/01/07 00:44:51;;;;;;;0.60;0.40;;;9.50;90.30;;;;;;5059386;28;20038;-77
2023/01/07 00:47:16;;;;;;;0.30;0.30;;;9.50;90.20;;;;;;5060896;28;20032;-77
2023/01/07 00:49:42;;;;;;;0.60;0.40;;;9.50;90.20;;;;;;5067351;28;20044;-77
2023/01/07 00:52:07;;;;;;;0.30;0.30;;;9.50;90.20;;;;;;5044840;28;20619;-76
2023/01/07 00:54:33;;;;;;;0.70;0.60;;;9.50;90.20;;;;;;5056266;28;20063;-76
2023/01/07 00:56:58;;;;;;;0.90;0.63;;;9.50;90.20;;;;;;5058227;28;20036;-76
2023/01/07 00:59:24;;;;;;;1.70;0.70;;;9.50;90.20;;;;;;5057598;28;20036;-78
2023/01/07 01:01:49;;;;;;;0.82;0.50;;;9.50;90.20;;;;;;5055090;28;20562;-78
2023/01/07 01:04:15;;;;;;;0.55;0.50;;;9.50;90.20;;;;;;5047673;28;20131;-77
2023/01/07 01:06:41;;;;;;;1.55;0.60;;;9.50;90.20;;;;;;5039946;28;20044;-77
2023/01/07 01:09:07;;;;;;;0.30;0.30;;;9.50;90.20;;;;;;5058151;28;20035;-77
2023/01/07 01:11:32;;;;;;;2.28;0.40;;;9.50;90.20;;;;;;5073453;28;20025;-77
2023/01/07 01:13:58;;;;;;;1.33;0.30;;;9.50;90.20;;;;;;5055854;28;20039;-77
2023/01/07 01:16:23;;;;;;;0.85;0.38;;;9.40;90.20;;;;;;5040801;28;20031;-77
2023/01/07 01:18:49;;;;;;;0.60;0.50;;;9.50;90.20;;;;;;5077091;28;20040;-77
2023/01/07 01:21:14;;;;;;;0.70;0.40;;;9.50;90.20;;;;;;5057208;28;20036;-77
2023/01/07 01:23:40;;;;;;;0.40;0.40;;;9.40;90.10;;;;;;5039472;28;22157;-76
2023/01/07 01:26:10;;;;;;;0.50;0.32;;;9.50;90.20;;;;;;5042664;28;20090;-76
2023/01/07 01:28:36;;;;;;;0.40;0.40;;;9.50;90.20;;;;;;5040329;28;20032;-76
2023/01/07 01:31:03;;;;;;;0.20;0.20;;;9.50;90.20;;;;;;5042349;28;20109;-77
2023/01/07 01:33:29;;;;;;;0.40;0.40;;;9.50;90.10;;;;;;5058452;28;20039;-77
2023/01/07 01:35:54;;;;;;;0.20;0.20;;;9.50;90.10;;;;;;5044207;28;20036;-76
2023/01/07 01:38:20;;;;;;;0.30;0.30;;;9.50;90.10;;;;;;5043960;28;20394;-76
2023/01/07 01:40:45;;;;;;;0.40;0.25;;;9.50;90.10;;;;;;5054461;28;20032;-76
2023/01/07 01:43:27;;;;;;;1.75;0.22;;;9.50;90.10;;;;;;5042240;28;20036;-76
2023/01/07 01:45:53;;;;;;;0.20;0.20;;;9.50;90.10;;;;;;5045148;28;20029;-76
2023/01/07 01:48:18;;;;;;;0.15;0.15;;;9.50;90.10;;;;;;5041999;28;20640;-77
2023/01/07 01:50:44;;;;;;;1.27;0.30;;;9.50;90.10;;;;;;5057723;28;20043;-76
2023/01/07 01:53:11;;;;;;;0.80;0.30;;;9.50;90.50;;;;;;5053931;28;20108;-75
2023/01/07 01:55:44;;;;;;;0.65;0.32;;;9.50;90.10;;;;;;5058434;28;20047;-76
2023/01/07 01:58:12;;;;;;;0.45;0.40;;;9.50;90.10;;;;;;5056295;28;20182;-74
2023/01/07 02:00:37;;;;;;;0.50;0.40;;;9.50;90.10;;;;;;5056844;28;20035;-77
2023/01/07 02:03:03;;;;;;;0.40;0.40;;;9.50;90.40;;;;;;5025432;28;20043;-76
2023/01/07 02:05:34;;;;;;;0.30;0.30;;;9.50;90.10;;;;;;5056533;28;20483;-75
2023/01/07 02:07:59;;;;;;;0.57;0.45;;;9.50;90.10;;;;;;5059417;28;20056;-77
2023/01/07 02:10:25;;;;;;;0.43;0.35;;;9.50;90.10;;;;;;5077624;28;20043;-76
2023/01/07 02:13:16;;;;;;;0.43;0.40;;;9.50;90.10;;;;;;5057430;28;20118;-76
2023/01/07 02:15:51;;;;;;;0.30;0.30;;;9.50;90.10;;;;;;5042562;28;20035;-76
2023/01/07 02:18:22;;;;;;;0.90;0.60;;;9.40;90.10;;;;;;5082696;28;20308;-76
2023/01/07 02:21:16;;;;;;;0.82;0.45;;;9.40;90.10;;;;;;5074435;28;20407;-76
2023/01/07 02:24:18;;;;;;;1.52;0.60;;;9.50;90.10;;;;;;5040871;28;20440;-76
2023/01/07 02:27:11;;;;;;;2.33;0.52;;;9.50;90.10;;;;;;5060691;28;20150;-76
2023/01/07 02:29:53;;;;;;;0.50;0.50;;;9.40;90.10;;;;;;5073615;28;20415;-75
2023/01/07 02:32:34;;;;;;;0.80;0.60;;;9.40;90.10;;;;;;5066186;28;20115;-77
2023/01/07 02:35:03;;;;;;;;;;;9.40;90.10;;;;;;5041630;28;20066;-76
2023/01/07 02:37:55;;;;;;;2.65;0.77;;;9.40;90.10;;;;;;5040422;28;19951;-76
2023/01/07 02:40:32;;;;;;;0.52;0.43;;;9.40;90.10;;;;;;5054560;28;20070;-76
2023/01/07 02:43:11;;;;;;;2.00;0.52;;;9.40;90.10;;;;;;5052341;28;20089;-77
2023/01/07 02:46:02;;;;;;;0.80;0.80;;;9.40;90.10;;;;;;5048608;28;20473;-76
2023/01/07 02:48:27;;;;;;;3.10;0.90;;;9.40;90.20;;;;;;5045616;28;20039;-76
2023/01/07 02:50:53;;;;;;;0.80;0.80;;;9.40;90.20;;;;;;5056492;28;20040;-77
2023/01/07 02:53:18;;;;;;;2.65;0.75;;;9.40;90.20;;;;;;5053537;28;20043;-77
2023/01/07 02:56:02;;;;;;;1.98;0.80;;;9.40;90.20;;;;;;5056503;28;20085;-77
2023/01/07 02:58:48;;;;;;;0.57;0.55;;;9.40;90.20;;;;;;5075741;28;20051;-76
2023/01/07 03:01:44;;;;;;;0.85;0.63;;;9.40;90.20;;;;;;5037395;28;20048;-76
2023/01/07 03:04:13;;;;;;;1.55;0.50;;;9.30;90.20;;;;;;5066325;28;20032;-76
2023/01/07 03:07:12;;;;;;;0.95;0.80;;;9.40;90.20;;;;;;5057244;28;20114;-77
2023/01/07 03:09:56;;;;;;;0.82;0.68;;;9.40;90.20;;;;;;5074819;28;20036;-77
2023/01/07 03:12:28;;;;;;;0.95;0.70;;;9.30;90.20;;;;;;5045252;28;20032;-78
2023/01/07 03:14:59;;;;;;;1.10;0.70;;;9.40;90.20;;;;;;5055676;28;20027;-76
2023/01/07 03:17:26;;;;;;;;;;;9.30;90.40;;;;;;5057486;28;20039;-76
2023/01/07 03:19:53;;;;;;;1.33;0.80;;;9.30;90.20;;;;;;5055479;28;20043;-77
2023/01/07 03:22:20;;;;;;;0.80;0.65;;;9.40;90.20;;;;;;5052400;28;20062;-76
2023/01/07 03:24:46;;;;;;;0.82;0.60;;;9.30;90.20;;;;;;5041613;28;20036;-77
2023/01/07 03:27:11;;;;;;;0.75;0.60;;;9.40;90.30;;;;;;5039235;28;20524;-76
2023/01/07 03:29:37;;;;;;;1.85;0.70;;;9.40;90.30;;;;;;5065792;28;20146;-75
2023/01/07 03:32:17;;;;;;;1.65;0.80;;;9.30;90.30;;;;;;5040345;28;20058;-76
2023/01/07 03:34:42;;;;;;;0.60;0.60;;;9.30;90.30;;;;;;5049427;28;20040;-75
2023/01/07 03:37:26;;;;;;;0.82;0.82;;;9.30;90.30;;;;;;5051149;28;20036;-77
2023/01/07 03:39:51;;;;;;;1.83;0.70;;;9.30;90.30;;;;;;5023854;28;22260;-77
2023/01/07 03:42:40;;;;;;;0.70;0.70;;;9.30;90.30;;;;;;5051878;28;20040;-76
2023/01/07 03:45:11;;;;;;;1.00;0.73;;;9.30;90.40;;;;;;5052382;28;20460;-76
2023/01/07 03:47:37;;;;;;;1.52;0.90;;;9.30;90.30;;;;;;5051230;28;20032;-75
2023/01/07 03:50:03;;;;;;;1.67;0.68;;;9.30;90.40;;;;;;5025524;28;20040;-76
2023/01/07 03:52:28;;;;;;;0.73;0.70;;;9.30;90.40;;;;;;5053212;28;20111;-75
2023/01/07 03:54:53;;;;;;;1.48;0.80;;;9.30;90.40;;;;;;5054807;28;20032;-75
2023/01/07 03:57:19;;;;;;;0.90;0.70;;;9.30;90.40;;;;;;5027096;28;20060;-75
2023/01/07 03:59:44;;;;;;;1.25;0.60;;;9.30;90.40;;;;;;5053523;28;20685;-77
2023/01/07 04:02:10;;;;;;;1.67;0.70;;;9.30;90.40;;;;;;5052205;28;20036;-75
2023/01/07 04:04:36;;;;;;;1.23;0.70;;;9.30;90.50;;;;;;5037496;28;20036;-77
2023/01/07 04:07:01;;;;;;;1.67;0.88;;;9.30;90.50;;;;;;5051363;28;20830;-75
2023/01/07 04:09:27;;;;;;;1.23;0.73;;;9.30;90.50;;;;;;5029898;28;20135;-76
2023/01/07 04:11:52;;;;;;;1.88;0.65;;;9.30;90.50;;;;;;5057087;28;20636;-77
2023/01/07 04:14:18;;;;;;;1.40;0.70;;;9.20;90.50;;;;;;5059344;28;20752;-76
2023/01/07 04:16:43;;;;;;;0.60;0.60;;;9.30;90.50;;;;;;5056033;28;20046;-77
2023/01/07 04:19:09;;;;;;;1.65;0.70;;;9.20;90.50;;;;;;5028673;28;20042;-76
2023/01/07 04:21:34;;;;;;;0.68;0.63;;;9.20;90.50;;;;;;5061890;28;20051;-76
2023/01/07 04:24:00;;;;;;;0.60;0.60;;;9.30;90.60;;;;;;5072163;28;20040;-76
2023/01/07 04:26:25;;;;;;;2.55;0.70;;;9.20;90.50;;;;;;5055495;28;20028;-75
2023/01/07 04:28:51;;;;;;;1.20;0.57;;;9.30;90.60;;;;;;5058616;28;20596;-77
2023/01/07 04:31:16;;;;;;;1.92;0.60;;;9.30;90.60;;;;;;5058046;28;20718;-77
2023/01/07 04:33:42;;;;;;;1.45;1.10;;;9.20;90.50;;;;;;5059892;28;20642;-78
2023/01/07 04:36:08;;;;;;;1.08;0.98;;;9.20;90.60;;;;;;5059315;28;20036;-77
2023/01/07 04:38:34;;;;;;;4.95;1.88;;;9.30;90.60;;;;;;5048334;28;20036;-76
2023/01/07 04:40:59;;;;;;;2.92;1.85;;;9.20;90.60;;;;;;5061724;28;20114;-77
2023/01/07 04:43:25;;;;;;;2.90;1.30;;;9.20;90.60;;;;;;5038946;28;20032;-77
2023/01/07 04:45:50;;;;;;;2.28;1.55;;;9.20;90.60;;;;;;5040829;28;20037;-75
2023/01/07 04:48:16;;;;;;;2.20;1.33;;;9.20;90.60;;;;;;5058324;28;21469;-77
2023/01/07 04:50:41;;;;;;;0.98;0.88;;;9.20;90.60;;;;;;5039174;28;20801;-77
2023/01/07 04:53:07;;;;;;;1.35;0.75;;;9.20;90.60;;;;;;5057815;28;20067;-77
2023/01/07 04:55:32;;;;;;;2.47;0.70;;;9.20;90.60;;;;;;5044663;28;20139;-76
2023/01/07 04:57:58;;;;;;;0.98;0.80;;;9.20;90.60;;;;;;5046022;28;20070;-74
2023/01/07 05:00:23;;;;;;;1.10;0.85;;;9.20;90.60;;;;;;5060595;28;20044;-76
2023/01/07 05:02:49;;;;;;;1.17;0.80;;;9.20;90.70;;;;;;5044145;28;20126;-76
2023/01/07 05:05:14;;;;;;;1.95;0.93;;;9.20;90.70;;;;;;5056579;28;20054;-77
2023/01/07 05:07:40;;;;;;;0.82;0.70;;;9.10;90.60;;;;;;5060530;28;20522;-76
2023/01/07 05:10:06;;;;;;;0.95;0.90;;;9.10;90.60;;;;;;5041390;28;20533;-77
2023/01/07 05:12:35;;;;;;;1.30;0.75;;;9.10;90.70;;;;;;5063356;28;20040;-77
2023/01/07 05:15:04;;;;;;;1.38;0.60;;;9.10;90.70;;;;;;5056289;28;20061;-76
2023/01/07 05:17:30;;;;;;;1.92;0.70;;;9.10;90.70;;;;;;5046480;28;20108;-77
2023/01/07 05:19:55;;;;;;;0.82;0.80;;;9.10;90.70;;;;;;5058392;28;20495;-77
2023/01/07 05:22:21;;;;;;;0.93;0.82;;;9.10;90.70;;;;;;5074001;28;20036;-75
2023/01/07 05:24:46;;;;;;;1.30;0.60;;;9.10;90.70;;;;;;5041747;28;20040;-76
2023/01/07 05:27:12;;;;;;;2.28;0.60;;;9.10;90.70;;;;;;5038860;28;20037;-75
2023/01/07 05:29:37;;;;;;;0.65;0.65;;;9.10;90.70;;;;;;5038665;28;20068;-76
2023/01/07 05:32:03;;;;;;;0.75;0.60;;;9.10;90.70;;;;;;5049100;28;20044;-77
2023/01/07 05:34:29;;;;;;;1.40;0.57;;;9.10;90.70;;;;;;5042928;28;20045;-76
2023/01/07 05:36:55;;;;;;;2.67;0.75;;;9.10;90.80;;;;;;5013618;28;20171;-76
2023/01/07 05:39:20;;;;;;;0.68;0.68;;;9.10;90.80;;;;;;5020185;28;20450;-78
2023/01/07 05:41:46;;;;;;;1.08;0.70;;;9.00;90.80;;;;;;5021863;28;20032;-76
2023/01/07 05:44:11;;;;;;;0.75;0.70;;;9.10;90.80;;;;;;5017829;28;20495;-75
2023/01/07 05:46:37;;;;;;;0.80;0.80;;;9.00;90.80;;;;;;5024177;28;20444;-75
2023/01/07 05:49:02;;;;;;;0.82;0.70;;;9.00;90.80;;;;;;5034990;28;20464;-75
2023/01/07 05:51:28;;;;;;;1.75;0.50;;;9.10;90.90;;;;;;5008047;28;20029;-77
2023/01/07 05:53:54;;;;;;;0.80;0.80;;;9.00;90.80;;;;;;5035211;28;20029;-75
2023/01/07 05:56:20;;;;;;;0.82;0.60;;;9.00;90.90;;;;;;5008418;28;20033;-76
2023/01/07 05:58:45;;;;;;;1.02;0.70;;;9.00;90.90;;;;;;5017199;28;20110;-77
2023/01/07 06:01:11;;;;;;;1.02;0.60;;;9.00;90.90;;;;;;5032278;28;20036;-75
2023/01/07 06:03:36;;;;;;;0.68;0.50;;;9.00;90.90;;;;;;5034677;28;20052;-76
2023/01/07 06:06:05;;;;;;;0.63;0.50;;;9.00;90.90;;;;;;5026203;28;20037;-75
2023/01/07 06:08:35;;;;;;;1.50;0.70;;;9.00;90.90;;;;;;5030558;28;20032;-76
2023/01/07 06:11:00;;;;;;;0.70;0.70;;;9.00;90.90;;;;;;5019807;28;20064;-75
2023/01/07 06:13:27;;;;;;;0.98;0.85;;;9.00;90.90;;;;;;5027411;28;20232;-75
2023/01/07 06:15:53;;;;;;;1.10;1.00;;;9.00;90.90;;;;;;5037532;28;20091;-75
2023/01/07 06:18:18;;;;;;;1.00;0.82;;;9.00;90.90;;;;;;5020938;28;20571;-75
2023/01/07 06:20:44;;;;;;;3.83;1.50;;;9.00;90.90;;;;;;5013111;28;20512;-76
2023/01/07 06:23:10;;;;;;;1.77;1.45;;;9.00;91.00;;;;;;5052190;28;20749;-76
2023/01/07 06:25:35;;;;;;;1.85;1.30;;;9.00;91.00;;;;;;5025331;28;20044;-76
2023/01/07 06:28:01;;;;;;;1.80;0.80;;;9.00;91.00;;;;;;5049766;28;20036;-77
2023/01/07 06:30:26;;;;;;;1.13;1.02;;;9.00;91.00;;;;;;5021646;28;20047;-77
2023/01/07 06:32:52;;;;;;;1.42;1.10;;;8.90;90.90;;;;;;5023726;28;20602;-76
2023/01/07 06:35:18;;;;;;;1.63;0.90;;;9.00;91.00;;;;;;5062833;28;20055;-75
2023/01/07 06:37:43;;;;;;;3.10;0.80;;;9.00;91.00;;;;;;5058360;28;20538;-76
2023/01/07 06:40:10;;;;;;;0.73;0.60;;;8.90;91.00;;;;;;5054309;28;20067;-75
2023/01/07 06:42:36;;;;;;;0.63;0.63;;;9.00;91.00;;;;;;5052458;28;20461;-77
2023/01/07 06:45:02;;;;;;;1.20;0.80;;;9.00;91.10;;;;;;5055873;28;20036;-75
2023/01/07 06:47:27;;;;;;;1.08;0.73;;;8.90;91.10;;;;;;5051114;28;20040;-76
2023/01/07 06:49:53;;;;;;;2.75;0.75;;;9.00;91.10;;;;;;5055360;28;20047;-76
2023/01/07 06:52:18;;;;;;;0.93;0.77;;;8.90;91.00;;;;;;5036789;28;20039;-76
2023/01/07 06:54:44;;;;;;;1.20;1.10;;;8.90;91.10;;;;;;5038332;28;20044;-76
2023/01/07 06:57:09;;;;;;;4.05;1.95;;;8.90;91.10;;;;;;5053782;28;20075;-76
2023/01/07 06:59:35;;;;;;;2.25;1.40;;;8.90;91.10;;;;;;5054686;28;20174;-77
2023/01/07 07:02:00;;;;;;;2.58;2.17;;;8.90;91.10;;;;;;5055192;28;20395;-77
2023/01/07 07:04:26;;;;;;;2.65;1.83;;;8.90;91.10;;;;;;5061498;28;20565;-77
2023/01/07 07:06:51;;;;;;;4.35;2.83;;;8.90;91.10;;;;;;5039962;28;20047;-76
2023/01/07 07:09:17;;;;;;;3.22;2.47;;;8.90;91.10;;;;;;5047530;28;20033;-75
2023/01/07 07:11:42;;;;;;;3.40;2.60;;;8.90;91.10;;;;;;5031066;28;20040;-76
2023/01/07 07:14:08;;;;;;;3.40;2.38;;;8.90;91.10;;;;;;5050593;28;20059;-76
2023/01/07 07:16:34;;;;;;;3.42;2.45;;;8.90;91.20;;;;;;5051259;28;20037;-75
2023/01/07 07:18:59;;;;;;;2.78;1.83;;;8.90;91.20;;;;;;5023589;28;20119;-69
2023/01/07 07:21:25;;;;;;;2.15;1.70;;;8.90;91.20;;;;;;5053570;28;20574;-70
2023/01/07 07:23:50;;;;;;;2.28;1.95;;;8.90;91.20;;;;;;5052787;28;20028;-71
2023/01/07 07:26:16;;;;;;;2.00;1.52;;;8.90;91.20;;;;;;5041142;28;20541;-70
2023/01/07 07:28:41;;;;;;;3.42;1.67;;;8.80;91.20;;;;;;5045901;28;20503;-71
2023/01/07 07:31:07;;;;;;;3.28;1.33;;;8.90;91.20;;;;;;5052262;28;20044;-76
2023/01/07 07:33:33;;;;;;;2.45;1.77;;;8.80;91.20;;;;;;5054029;28;20044;-75
2023/01/07 07:35:58;;;;;;;4.55;2.17;;;8.80;91.20;;;;;;5039387;28;20067;-75
2023/01/07 07:38:24;;;;;;;2.92;1.63;;;8.80;91.20;;;;;;5047802;28;20474;-74
2023/01/07 07:40:49;;;;;;;3.47;2.20;;;8.80;91.20;;;;;;5035027;28;20028;-76
2023/01/07 07:43:15;;;;;;;2.55;1.88;;;8.80;91.20;;;;;;5049947;28;20052;-75
2023/01/07 07:45:41;;;;;;;4.38;2.83;;;8.80;91.20;;;;;;5033635;28;20036;-75
2023/01/07 07:48:07;;;;;;;5.25;2.75;;;8.80;91.20;;;;;;5035837;28;20040;-74
2023/01/07 07:50:33;;;;;;;16.40;9.75;;;8.80;91.20;;;;;;5034390;28;20421;-74
2023/01/07 07:52:58;;;;;;;24.13;15.50;;;8.80;91.30;;;;;;5046998;28;20433;-75
2023/01/07 07:55:24;;;;;;;12.63;8.00;;;8.80;91.20;;;;;;5052455;28;20051;-76
2023/01/07 07:57:55;;;;;;;6.80;5.43;;;8.80;91.20;;;;;;5053760;28;20194;-74
2023/01/07 08:00:21;;;;;;;15.43;9.85;;;8.80;91.30;;;;;;5049645;28;20041;-75
2023/01/07 08:02:46;;;;;;;7.93;5.47;;;8.80;91.30;;;;;;5051718;28;20036;-77
2023/01/07 08:05:12;;;;;;;15.48;9.07;;;8.80;91.20;;;;;;5054134;28;20041;-73
2023/01/07 08:07:38;;;;;;;13.00;8.63;;;8.80;91.20;;;;;;5018728;28;20039;-73
2023/01/07 08:10:04;;;;;;;9.10;5.40;;;8.80;91.20;;;;;;5058224;28;20047;-75
2023/01/07 08:12:30;;;;;;;7.40;4.40;;;8.80;91.30;;;;;;5037314;28;20044;-75
2023/01/07 08:14:56;;;;;;;10.55;4.53;;;8.80;91.30;;;;;;5060846;28;20055;-74
2023/01/07 08:17:21;;;;;;;7.13;4.50;;;8.80;91.30;;;;;;5039154;28;20055;-74
2023/01/07 08:19:47;;;;;;;9.90;5.20;;;8.80;91.30;;;;;;5037425;28;20040;-76
2023/01/07 08:22:12;;;;;;;10.30;5.32;;;8.80;91.30;;;;;;5051669;28;20032;-76
2023/01/07 08:24:38;;;;;;;8.63;5.47;;;8.80;91.30;;;;;;5038147;28;20602;-76
2023/01/07 08:27:04;;;;;;;10.93;5.35;;;8.80;91.30;;;;;;5044081;28;20071;-75
2023/01/07 08:29:29;;;;;;;12.73;6.55;;;8.80;91.30;;;;;;5054094;28;20093;-75
2023/01/07 08:31:55;;;;;;;13.55;5.60;;;8.80;91.30;;;;;;5049079;28;20403;-76
2023/01/07 08:34:20;;;;;;;8.95;5.65;;;8.90;91.30;;;;;;5032949;28;20043;-74
2023/01/07 08:36:46;;;;;;;11.70;5.07;;;8.80;91.30;;;;;;5060610;28;20040;-74
2023/01/07 08:39:12;;;;;;;12.55;5.50;;;8.90;91.40;;;;;;5046765;28;20071;-74
2023/01/07 08:41:37;;;;;;;11.90;5.30;;;8.90;91.30;;;;;;5052970;28;20043;-75
2023/01/07 08:44:03;;;;;;;12.27;4.60;;;8.90;91.30;;;;;;5039377;28;20044;-75
2023/01/07 08:46:28;;;;;;;5.18;3.92;;;8.90;91.40;;;;;;5053349;28;20043;-76
2023/01/07 08:48:54;;;;;;;5.78;4.07;;;8.90;91.40;;;;;;5054829;28;20620;-75
2023/01/07 08:51:19;;;;;;;26.35;12.48;;;8.90;91.40;;;;;;5042685;28;20074;-75
2023/01/07 08:53:45;;;;;;;28.17;12.15;;;8.90;91.30;;;;;;5051522;28;20578;-76
2023/01/07 08:56:10;;;;;;;11.02;6.75;;;8.90;91.30;;;;;;5038090;28;20647;-75
2023/01/07 08:58:37;;;;;;;4.05;2.63;;;8.90;91.30;;;;;;5081985;28;20032;-76
2023/01/07 09:01:04;;;;;;;5.05;2.30;;;8.90;91.30;;;;;;5071384;28;20120;-75
2023/01/07 09:03:29;;;;;;;17.20;6.03;;;8.90;91.30;;;;;;5034843;28;20052;-76
2023/01/07 09:05:55;;;;;;;21.13;6.72;;;8.90;91.30;;;;;;5049777;28;20147;-76
2023/01/07 09:08:20;;;;;;;15.18;5.05;;;8.90;91.30;;;;;;5053174;28;20119;-74
2023/01/07 09:10:46;;;;;;;12.35;3.85;;;8.90;91.30;;;;;;5058993;28;20143;-75
2023/01/07 09:13:11;;;;;;;8.18;3.97;;;9.00;91.30;;;;;;5055470;28;20658;-75
2023/01/07 09:15:37;;;;;;;16.58;5.15;;;8.90;91.30;;;;;;5052344;28;20043;-75
2023/01/07 09:18:03;;;;;;;9.45;5.28;;;8.90;91.30;;;;;;5043875;28;20044;-75
2023/01/07 09:20:29;;;;;;;6.72;4.75;;;8.90;91.30;;;;;;5056890;28;20047;-76
2023/01/07 09:22:54;;;;;;;7.13;4.20;;;9.00;91.30;;;;;;5054835;28;20040;-75
2023/01/07 09:25:20;;;;;;;4.40;3.35;;;9.00;91.30;;;;;;5073513;27;20403;-75
2023/01/07 09:27:46;;;;;;;3.72;2.72;;;9.00;91.40;;;;;;5044947;28;20073;-75
2023/01/07 09:30:11;;;;;;;4.18;3.00;;;9.00;91.30;;;;;;5057668;28;20132;-75
2023/01/07 09:32:37;;;;;;;4.10;2.75;;;9.00;91.30;;;;;;5025874;28;20048;-74
2023/01/07 09:35:04;;;;;;;5.68;2.70;;;9.00;91.30;;;;;;5039336;28;20048;-75
2023/01/07 09:37:29;;;;;;;3.25;2.20;;;9.00;91.30;;;;;;5057463;28;20070;-75
2023/01/07 09:39:55;;;;;;;3.40;2.25;;;9.00;91.20;;;;;;5054335;28;20112;-76
2023/01/07 09:42:30;;;;;;;4.50;2.17;;;9.00;91.20;;;;;;5057571;28;20811;-74
2023/01/07 09:45:11;;;;;;;2.45;1.90;;;9.00;91.20;;;;;;5056644;28;20051;-74
2023/01/07 09:47:37;;;;;;;3.38;2.22;;;9.00;91.20;;;;;;5073840;28;20047;-76
2023/01/07 09:50:08;;;;;;;2.08;1.70;;;9.10;91.10;;;;;;5065955;28;20120;-74
2023/01/07 09:52:40;;;;;;;3.30;1.55;;;9.10;91.10;;;;;;5056849;28;20114;-75
2023/01/07 09:55:35;;;;;;;2.47;1.88;;;9.10;91.10;;;;;;5037431;28;20115;-75
2023/01/07 09:58:01;;;;;;;3.88;1.63;;;9.10;90.90;;;;;;5042447;28;20036;-74
2023/01/07 10:00:26;;;;;;;6.38;1.55;;;9.20;91.00;;;;;;5053353;28;20047;-76
2023/01/07 10:03:16;;;;;;;3.80;2.20;;;9.20;90.90;;;;;;5058237;28;20047;-76
2023/01/07 10:05:54;;;;;;;3.05;2.22;;;9.20;90.90;;;;;;5051025;28;20825;-76
2023/01/07 10:08:41;;;;;;;4.13;2.28;;;9.20;90.90;;;;;;5053107;28;20115;-76
2023/01/07 10:11:12;;;;;;;3.40;2.20;;;9.20;90.90;;;;;;5055128;28;20058;-75
2023/01/07 10:13:48;;;;;;;3.55;2.17;;;9.30;90.80;;;;;;5054400;28;20040;-75
2023/01/07 10:16:28;;;;;;;2.72;2.00;;;9.30;90.80;;;;;;5052923;28;20066;-76
2023/01/07 10:18:57;;;;;;;2.67;2.05;;;9.30;90.70;;;;;;5049187;28;20047;-76
2023/01/07 10:21:26;;;;;;;5.40;2.03;;;9.30;90.70;;;;;;5047756;28;20392;-76
2023/01/07 10:23:58;;;;;;;2.92;2.03;;;9.30;90.70;;;;;;5029326;28;20111;-76
2023/01/07 10:26:38;;;;;;;3.22;2.30;;;9.30;90.70;;;;;;5035783;28;20175;-69
2023/01/07 10:29:23;;;;;;;3.20;2.33;;;9.40;90.60;;;;;;5071123;28;20042;-70
2023/01/07 10:31:49;;;;;;;4.40;2.80;;;9.40;90.70;;;;;;5054957;28;20755;-70
2023/01/07 10:34:18;;;;;;;3.78;2.70;;;9.40;90.60;;;;;;5049552;28;20037;-70
2023/01/07 10:37:26;;;;;;;3.53;2.28;;;9.40;90.50;;;;;;5052680;28;20036;-71
2023/01/07 10:40:25;;;;;;;2.95;2.30;;;9.40;90.40;;;;;;5026453;28;20040;-70
2023/01/07 10:43:02;;;;;;;4.30;2.25;;;9.50;90.50;;;;;;5065464;28;20036;-71
2023/01/07 10:45:48;;;;;;;3.25;2.20;;;9.50;90.40;;;;;;5056265;28;20044;-71
2023/01/07 10:48:23;;;;;;;5.45;2.33;;;9.50;90.40;;;;;;5052881;28;20125;-75
2023/01/07 10:51:26;;;;;;;2.22;1.67;;;9.50;90.40;;;;;;5064820;28;20052;-76
2023/01/07 10:54:13;;;;;;;1.75;1.33;;;9.60;90.30;;;;;;5066398;28;20043;-77
2023/01/07 10:56:43;;;;;;;4.82;1.85;;;9.60;90.30;;;;;;5065056;28;20117;-76
2023/01/07 10:59:17;;;;;;;3.35;1.50;;;9.60;90.30;;;;;;5039685;28;20577;-71
2023/01/07 11:01:49;;;;;;;1.73;1.40;;;9.60;90.20;;;;;;5043195;28;20039;-77
2023/01/07 11:04:15;;;;;;;1.50;1.40;;;9.60;90.20;;;;;;5052885;28;20032;-76
2023/01/07 11:06:51;;;;;;;4.13;1.60;;;9.70;90.20;;;;;;5017311;28;20036;-77
2023/01/07 11:09:35;;;;;;;2.30;2.10;;;9.70;90.10;;;;;;5033656;28;20056;-75
2023/01/07 11:12:14;;;;;;;2.72;2.30;;;9.70;90.10;;;;;;5052675;28;20090;-77
2023/01/07 11:14:40;;;;;;;3.10;1.83;;;9.70;90.10;;;;;;5053825;28;20040;-75
2023/01/07 11:17:25;;;;;;;3.97;2.53;;;9.70;90.10;;;;;;5025396;28;20525;-76
2023/01/07 11:19:51;;;;;;;5.15;2.95;;;9.70;90.00;;;;;;5034629;28;20064;-76
2023/01/07 11:22:25;;;;;;;5.25;2.72;;;9.70;90.00;;;;;;5036200;28;20046;-77
2023/01/07 11:24:54;;;;;;;3.65;2.63;;;9.80;90.00;;;;;;5069998;28;20039;-76
2023/01/07 11:27:20;;;;;;;6.07;3.42;;;9.80;90.00;;;;;;5064096;28;20115;-76
2023/01/07 11:30:20;;;;;;;8.02;4.80;;;9.80;90.00;;;;;;5032448;28;20068;-76
2023/01/07 11:33:01;;;;;;;2.30;1.83;;;9.80;89.70;;;;;;5048050;28;20033;-76
2023/01/07 11:35:27;;;;;;;2.35;2.00;;;9.80;89.60;;;;;;5032762;28;20475;-75
2023/01/07 11:37:53;;;;;;;3.33;2.35;;;9.80;90.20;;;;;;5048975;28;20028;-75
2023/01/07 11:40:29;;;;;;;3.63;2.75;;;9.80;89.50;;;;;;5065033;28;20217;-76
2023/01/07 11:42:58;;;;;;;3.05;2.28;;;9.80;89.30;;;;;;5050529;28;20043;-77
2023/01/07 11:45:26;;;;;;;19.08;3.75;;;9.90;89.30;;;;;;5055474;28;20032;-76
2023/01/07 11:48:00;;;;;;;3.33;2.35;;;9.90;89.10;;;;;;5058219;28;20036;-76
2023/01/07 11:50:29;;;;;;;5.22;2.92;;;9.90;88.90;;;;;;5068597;28;20108;-76
2023/01/07 11:53:05;;;;;;;12.88;6.10;;;9.90;88.70;;;;;;5059091;28;20041;-76
2023/01/07 11:55:31;;;;;;;5.88;3.67;;;9.90;88.50;;;;;;5053503;28;20036;-74
2023/01/07 11:57:56;;;;;;;3.75;2.65;;;9.90;88.50;;;;;;5050810;28;20043;-76
2023/01/07 12:00:22;;;;;;;2.88;1.90;;;9.90;88.30;;;;;;5051523;28;20032;-76
2023/01/07 12:03:02;;;;;;;4.75;2.70;;;9.90;88.20;;;;;;5050822;28;20047;-75
2023/01/07 12:05:28;;;;;;;2.28;1.55;;;9.90;87.70;;;;;;5048102;28;20097;-75
2023/01/07 12:07:55;;;;;;;2.15;1.60;;;9.90;87.90;;;;;;5060701;28;20675;-76
2023/01/07 12:10:41;;;;;;;2.78;1.73;;;9.90;87.90;;;;;;5034797;28;20044;-74
2023/01/07 12:13:17;;;;;;;3.03;1.88;;;9.90;87.60;;;;;;5026275;28;20083;-76
2023/01/07 12:15:48;;;;;;;2.25;1.77;;;9.90;87.60;;;;;;5053452;28;20589;-76
2023/01/07 12:18:54;;;;;;;1.75;1.27;;;9.90;87.60;;;;;;5053744;28;20123;-75
2023/01/07 12:22:01;;;;;;;2.03;1.13;;;9.90;87.40;;;;;;5023451;28;20813;-76
2023/01/07 12:24:54;;;;;;;1.38;1.23;;;9.90;87.20;;;;;;5042679;28;20113;-76
2023/01/07 12:27:31;;;;;;;1.40;1.00;;;9.90;87.20;;;;;;5076836;28;20101;-76
2023/01/07 12:30:01;;;;;;;1.73;1.05;;;9.80;87.20;;;;;;5037704;28;20670;-75
2023/01/07 12:32:44;;;;;;;5.15;3.13;;;9.90;87.20;;;;;;5054862;28;20040;-76
2023/01/07 12:35:29;;;;;;;1.50;1.40;;;9.80;87.10;;;;;;5054466;28;20089;-75
2023/01/07 12:38:50;;;;;;;2.40;2.00;;;9.90;87.00;;;;;;5051467;28;20032;-76
2023/01/07 12:41:22;;;;;;;1.63;1.47;;;9.90;86.80;;;;;;4995187;28;20038;-75
2023/01/07 12:43:53;;;;;;;0.95;0.93;;;9.90;87.10;;;;;;4978484;28;20112;-75
2023/01/07 12:46:19;;;;;;;1.17;1.08;;;10.00;87.00;;;;;;4985162;28;20025;-76
2023/01/07 12:49:06;;;;;;;2.78;1.13;;;10.00;86.80;;;;;;4944760;28;20667;-77
2023/01/07 12:51:50;;;;;;;1.75;1.38;;;10.00;86.30;;;;;;4976503;28;20089;-75
2023/01/07 12:54:40;;;;;;;2.22;1.63;;;10.00;86.30;;;;;;4992095;28;20529;-76
2023/01/07 12:57:18;;;;;;;1.20;1.10;;;10.00;86.30;;;;;;4976745;28;20050;-75
2023/01/07 12:59:55;;;;;;;1.05;0.90;;;10.00;86.40;;;;;;4964607;28;20045;-75
2023/01/07 13:02:47;;;;;;;0.95;0.80;;;10.00;86.30;;;;;;4987276;28;20027;-73
2023/01/07 13:05:22;;;;;;;3.10;1.10;;;10.00;85.90;;;;;;4981085;28;20133;-75
2023/01/07 13:07:55;;;;;;;6.25;2.50;;;10.10;86.20;;;;;;4996623;28;20045;-75
2023/01/07 13:10:23;;;;;;;1.48;1.25;;;10.10;86.20;;;;;;4965514;28;20563;-75
2023/01/07 13:12:49;;;;;;;1.67;0.95;;;10.10;86.00;;;;;;4977992;28;20042;-73